Time;durP1;ratioP1;P1;durP2;ratioP2;P2;SDS_P1;SDS_P2;PMS_P1;PMS_P2;Temp;Humidity;BMP_temperature;BMP_pressure;BME280_temperature;BME280_humidity;BME280_pressure;Samples;Min_cycle;Max_cycle;Signal;HPM_P1;HPM_P2
2022/02/22 00:02:16;;;;;;;27.83;4.17;;;;;;;;;;5036984;28;20609;-67
2022/02/22 00:04:43;;;;;;;37.10;4.00;;;;;;;;;;5045657;28;20720;-67
2022/02/22 00:07:10;;;;;;;32.70;3.83;;;;;;;;;;5043852;28;20190;-67
2022/02/22 00:09:35;;;;;;;35.37;3.60;;;;;;;;;;5046712;28;20182;-67
2022/02/22 00:12:01;;;;;;;28.63;4.97;;;;;;;;;;5044318;28;20262;-67
2022/02/22 00:14:26;;;;;;;25.53;4.20;;;;;;;;;;5040787;28;20197;-68
2022/02/22 00:16:55;;;;;;;27.80;4.03;;;;;;;;;;5039227;28;20673;-68
2022/02/22 00:19:30;;;;;;;28.23;3.90;;;;;;;;;;5045375;28;20229;-68
2022/02/22 00:21:55;;;;;;;28.40;4.43;;;;;;;;;;5039838;28;20619;-68
2022/02/22 00:24:21;;;;;;;32.60;4.03;;;;;;;;;;5042730;28;20720;-68
2022/02/22 00:26:47;;;;;;;21.47;2.93;;;;;;;;;;5043983;28;20193;-68
2022/02/22 00:29:13;;;;;;;28.47;4.50;;;;;;;;;;5043151;28;20209;-67
2022/02/22 00:31:39;;;;;;;26.67;4.37;;;;;;;;;;5041414;28;20217;-68
2022/02/22 00:34:05;;;;;;;31.73;5.03;;;;;;;;;;5045095;28;20785;-68
2022/02/22 00:36:31;;;;;;;28.47;4.63;;;;;;;;;;5045327;28;20636;-68
2022/02/22 00:38:57;;;;;;;19.73;2.87;;;;;;;;;;5045358;28;20186;-67
2022/02/22 00:41:22;;;;;;;31.93;3.90;;;;;;;;;;5043454;28;20186;-67
2022/02/22 00:43:48;;;;;;;21.63;3.37;;;;;;;;;;5047184;28;20536;-68
2022/02/22 00:46:13;;;;;;;26.90;3.23;;;;;;;;;;5044961;28;20240;-67
2022/02/22 00:48:38;;;;;;;37.77;4.50;;;;;;;;;;5042573;28;20189;-67
2022/02/22 00:51:04;;;;;;;33.10;4.27;;;;;;;;;;5046159;28;20209;-67
2022/02/22 00:53:29;;;;;;;30.33;4.20;;;;;;;;;;5041548;28;20269;-67
2022/02/22 00:55:55;;;;;;;35.70;4.57;;;;;;;;;;5044186;28;20194;-68
2022/02/22 00:58:20;;;;;;;31.57;4.47;;;;;;;;;;5046299;28;20531;-67
2022/02/22 01:00:46;;;;;;;30.53;4.13;;;;;;;;;;5049347;28;20189;-67
2022/02/22 01:03:11;;;;;;;28.93;4.07;;;;;;;;;;5039749;28;20208;-67
2022/02/22 01:05:37;;;;;;;30.37;3.37;;;;;;;;;;5045120;28;20277;-67
2022/02/22 01:08:03;;;;;;;26.70;4.00;;;;;;;;;;5041836;28;20177;-67
2022/02/22 01:10:29;;;;;;;25.30;4.47;;;;;;;;;;5036372;28;20216;-67
2022/02/22 01:12:55;;;;;;;30.40;4.57;;;;;;;;;;5043479;28;20515;-67
2022/02/22 01:15:21;;;;;;;25.13;3.73;;;;;;;;;;5043131;28;20208;-67
2022/02/22 01:17:46;;;;;;;25.00;3.80;;;;;;;;;;5042162;28;20185;-67
2022/02/22 01:20:13;;;;;;;35.23;4.13;;;;;;;;;;5044343;28;20225;-67
2022/02/22 01:22:38;;;;;;;33.60;4.73;;;;;;;;;;5041566;28;20548;-67
2022/02/22 01:25:05;;;;;;;27.77;3.73;;;;;;;;;;5043592;28;20200;-67
2022/02/22 01:27:31;;;;;;;29.97;3.00;;;;;;;;;;5039846;28;20704;-67
2022/02/22 01:29:56;;;;;;;26.20;3.97;;;;;;;;;;5041003;28;20193;-67
2022/02/22 01:32:22;;;;;;;36.40;4.47;;;;;;;;;;5042902;28;20181;-67
2022/02/22 01:34:47;;;;;;;22.17;3.50;;;;;;;;;;5046656;28;20181;-67
2022/02/22 01:37:12;;;;;;;27.20;3.30;;;;;;;;;;5041792;28;20215;-67
2022/02/22 01:39:38;;;;;;;37.60;4.60;;;;;;;;;;5043508;28;20189;-67
2022/02/22 01:42:03;;;;;;;29.70;3.87;;;;;;;;;;5041147;28;20376;-67
2022/02/22 01:44:29;;;;;;;30.23;4.00;;;;;;;;;;5043153;28;20189;-67
2022/02/22 01:46:59;;;;;;;25.90;3.67;;;;;;;;;;5043651;28;20263;-67
2022/02/22 01:49:25;;;;;;;41.77;4.83;;;;;;;;;;5043303;28;20274;-67
2022/02/22 01:51:51;;;;;;;37.30;3.77;;;;;;;;;;5045744;28;20214;-66
2022/02/22 01:54:17;;;;;;;32.07;4.60;;;;;;;;;;5045258;28;20213;-67
2022/02/22 01:56:43;;;;;;;33.20;4.60;;;;;;;;;;5044117;28;20189;-67
2022/02/22 01:59:08;;;;;;;30.17;4.37;;;;;;;;;;5031875;28;20186;-67
2022/02/22 02:01:34;;;;;;;30.00;4.53;;;;;;;;;;5039796;28;20533;-67
2022/02/22 02:04:05;;;;;;;33.47;3.83;;;;;;;;;;5041416;28;20256;-66
2022/02/22 02:06:31;;;;;;;34.87;5.20;;;;;;;;;;5040063;28;20190;-67
2022/02/22 02:08:56;;;;;;;33.40;4.17;;;;;;;;;;5045498;28;20188;-67
2022/02/22 02:11:22;;;;;;;29.60;4.70;;;;;;;;;;5038913;28;20712;-67
2022/02/22 02:13:48;;;;;;;40.40;5.00;;;;;;;;;;5040849;28;20192;-67
2022/02/22 02:16:14;;;;;;;26.17;3.90;;;;;;;;;;5040359;28;20268;-67
2022/02/22 02:18:39;;;;;;;32.70;4.47;;;;;;;;;;5041831;28;20708;-67
2022/02/22 02:21:04;;;;;;;28.63;4.13;;;;;;;;;;5043672;28;20205;-67
2022/02/22 02:23:30;;;;;;;38.77;4.87;;;;;;;;;;5044409;28;20268;-67
2022/02/22 02:25:55;;;;;;;36.67;4.50;;;;;;;;;;5042409;28;20552;-67
2022/02/22 02:28:21;;;;;;;30.13;4.67;;;;;;;;;;5048372;28;20589;-67
2022/02/22 02:30:46;;;;;;;34.57;4.90;;;;;;;;;;5048104;28;20627;-67
2022/02/22 02:33:11;;;;;;;31.67;4.47;;;;;;;;;;5050834;28;20188;-67
2022/02/22 02:35:37;;;;;;;41.17;4.30;;;;;;;;;;5045466;28;20746;-66
2022/02/22 02:38:02;;;;;;;28.37;3.70;;;;;;;;;;5044140;28;20201;-67
2022/02/22 02:40:28;;;;;;;21.47;3.40;;;;;;;;;;5036939;28;20186;-67
2022/02/22 02:42:53;;;;;;;23.97;3.50;;;;;;;;;;5040843;28;20265;-67
2022/02/22 02:45:18;;;;;;;29.27;3.53;;;;;;;;;;5044572;28;20665;-66
2022/02/22 02:47:44;;;;;;;31.40;3.87;;;;;;;;;;5045791;28;20548;-67
2022/02/22 02:50:11;;;;;;;26.50;3.93;;;;;;;;;;5045084;28;20213;-67
2022/02/22 02:52:36;;;;;;;35.07;3.93;;;;;;;;;;5045989;28;20656;-66
2022/02/22 02:55:02;;;;;;;36.10;3.77;;;;;;;;;;5048223;28;20186;-66
2022/02/22 02:57:28;;;;;;;34.50;4.50;;;;;;;;;;5047738;28;20181;-67
2022/02/22 02:59:53;;;;;;;37.80;4.20;;;;;;;;;;5040800;28;20185;-66
2022/02/22 03:02:19;;;;;;;27.53;4.40;;;;;;;;;;5042895;28;20664;-67
2022/02/22 03:04:44;;;;;;;31.77;3.50;;;;;;;;;;5050467;28;20367;-66
2022/02/22 03:07:10;;;;;;;27.80;3.63;;;;;;;;;;5046524;28;20197;-66
2022/02/22 03:09:35;;;;;;;31.07;3.47;;;;;;;;;;5047277;28;20189;-67
2022/02/22 03:12:00;;;;;;;21.00;3.33;;;;;;;;;;5045347;28;20233;-67
2022/02/22 03:14:26;;;;;;;32.20;3.53;;;;;;;;;;5045331;28;20277;-67
2022/02/22 03:16:51;;;;;;;21.90;3.63;;;;;;;;;;5047262;28;20161;-67
2022/02/22 03:19:17;;;;;;;32.67;3.30;;;;;;;;;;5048262;28;20276;-67
2022/02/22 03:21:42;;;;;;;35.40;3.93;;;;;;;;;;5046243;28;20192;-67
2022/02/22 03:24:08;;;;;;;23.77;3.23;;;;;;;;;;5045559;28;20193;-67
2022/02/22 03:26:33;;;;;;;23.23;3.33;;;;;;;;;;5044867;28;20183;-67
2022/02/22 03:29:00;;;;;;;28.27;3.73;;;;;;;;;;5038447;28;20577;-67
2022/02/22 03:31:27;;;;;;;32.03;3.60;;;;;;;;;;5043705;28;20623;-67
2022/02/22 03:33:53;;;;;;;22.93;3.33;;;;;;;;;;5048032;28;20618;-67
2022/02/22 03:36:19;;;;;;;30.40;3.60;;;;;;;;;;5041334;28;20185;-66
2022/02/22 03:38:46;;;;;;;28.53;3.33;;;;;;;;;;5050133;28;20243;-67
2022/02/22 03:41:11;;;;;;;21.00;3.17;;;;;;;;;;5046618;28;20521;-67
2022/02/22 03:43:36;;;;;;;22.33;3.37;;;;;;;;;;5048749;28;20192;-66
2022/02/22 03:46:02;;;;;;;22.00;2.77;;;;;;;;;;5040586;28;20793;-66
2022/02/22 03:48:27;;;;;;;23.97;3.30;;;;;;;;;;5046908;28;20271;-66
2022/02/22 03:50:53;;;;;;;26.67;3.13;;;;;;;;;;5045109;28;20213;-66
2022/02/22 03:53:18;;;;;;;21.70;2.93;;;;;;;;;;5046297;28;20186;-68
2022/02/22 03:55:45;;;;;;;23.80;3.30;;;;;;;;;;5045843;28;20192;-68
2022/02/22 03:58:10;;;;;;;21.40;3.03;;;;;;;;;;5037059;28;20273;-67
2022/02/22 04:00:35;;;;;;;27.43;3.33;;;;;;;;;;5043885;28;20926;-67
2022/02/22 04:03:03;;;;;;;25.37;3.80;;;;;;;;;;5042683;28;20189;-67
2022/02/22 04:05:29;;;;;;;26.97;3.63;;;;;;;;;;5043025;28;21180;-67
2022/02/22 04:07:56;;;;;;;31.83;3.60;;;;;;;;;;5042033;28;20594;-67
2022/02/22 04:10:21;;;;;;;21.03;3.80;;;;;;;;;;5040639;28;20197;-67
2022/02/22 04:12:47;;;;;;;27.13;3.20;;;;;;;;;;5042658;28;20672;-67
2022/02/22 04:15:13;;;;;;;28.23;4.20;;;;;;;;;;5042503;28;20280;-67
2022/02/22 04:17:39;;;;;;;27.13;2.93;;;;;;;;;;5044246;28;20188;-67
2022/02/22 04:20:05;;;;;;;26.23;3.20;;;;;;;;;;5040695;28;20182;-67
2022/02/22 04:22:30;;;;;;;22.40;4.33;;;;;;;;;;5047750;28;20671;-67
2022/02/22 04:24:56;;;;;;;26.63;3.67;;;;;;;;;;5044464;28;20194;-67
2022/02/22 04:27:22;;;;;;;31.97;4.57;;;;;;;;;;5043556;28;20213;-67
2022/02/22 04:29:47;;;;;;;25.93;3.50;;;;;;;;;;5042402;28;20277;-67
2022/02/22 04:32:13;;;;;;;29.50;3.57;;;;;;;;;;5043696;28;20201;-67
2022/02/22 04:34:38;;;;;;;26.97;3.40;;;;;;;;;;5046543;28;20559;-67
2022/02/22 04:37:04;;;;;;;21.90;3.17;;;;;;;;;;5040778;28;20178;-67
2022/02/22 04:39:29;;;;;;;28.10;3.73;;;;;;;;;;5039789;28;20688;-67
2022/02/22 04:41:55;;;;;;;27.43;3.73;;;;;;;;;;5047802;28;20192;-67
2022/02/22 04:44:20;;;;;;;33.57;3.23;;;;;;;;;;5038496;28;20185;-67
2022/02/22 04:46:46;;;;;;;32.77;3.07;;;;;;;;;;5042272;28;20273;-67
2022/02/22 04:49:12;;;;;;;30.80;4.17;;;;;;;;;;5044172;28;20197;-67
2022/02/22 04:51:40;;;;;;;31.97;3.40;;;;;;;;;;5043974;28;20781;-67
2022/02/22 04:54:06;;;;;;;25.73;3.13;;;;;;;;;;5045604;28;20204;-67
2022/02/22 04:56:32;;;;;;;29.23;3.60;;;;;;;;;;5044897;28;20503;-67
2022/02/22 04:58:58;;;;;;;31.47;4.53;;;;;;;;;;5041394;28;20204;-68
2022/02/22 05:01:23;;;;;;;23.20;3.67;;;;;;;;;;5042105;28;20189;-68
2022/02/22 05:03:49;;;;;;;24.83;4.30;;;;;;;;;;5047497;28;20239;-68
2022/02/22 05:06:15;;;;;;;24.50;3.13;;;;;;;;;;5042889;28;20185;-67
2022/02/22 05:08:41;;;;;;;30.10;4.13;;;;;;;;;;5037228;28;20570;-67
2022/02/22 05:11:06;;;;;;;31.23;3.77;;;;;;;;;;5040243;28;20288;-67
2022/02/22 05:13:32;;;;;;;24.03;3.33;;;;;;;;;;5043686;28;20181;-67
2022/02/22 05:15:58;;;;;;;31.07;3.10;;;;;;;;;;5043696;28;20185;-67
2022/02/22 05:18:23;;;;;;;39.90;3.73;;;;;;;;;;5041698;28;20646;-67
2022/02/22 05:20:55;;;;;;;37.47;3.70;;;;;;;;;;5039480;28;20264;-67
2022/02/22 05:23:26;;;;;;;32.87;3.37;;;;;;;;;;5053293;28;20193;-67
2022/02/22 05:25:52;;;;;;;30.63;3.63;;;;;;;;;;5042664;28;20612;-68
2022/02/22 05:28:22;;;;;;;27.50;3.60;;;;;;;;;;5045286;28;20528;-67
2022/02/22 05:30:49;;;;;;;37.73;3.77;;;;;;;;;;5037902;28;20229;-67
2022/02/22 05:33:15;;;;;;;32.10;3.83;;;;;;;;;;5036805;28;20240;-67
2022/02/22 05:35:43;;;;;;;38.60;4.03;;;;;;;;;;5041318;28;20185;-67
2022/02/22 05:38:09;;;;;;;34.33;3.70;;;;;;;;;;5041095;28;20243;-67
2022/02/22 05:40:34;;;;;;;24.10;2.90;;;;;;;;;;5042065;28;20181;-67
2022/02/22 05:42:59;;;;;;;24.83;3.17;;;;;;;;;;5044499;28;20703;-67
2022/02/22 05:45:25;;;;;;;31.80;3.70;;;;;;;;;;5044367;28;20280;-67
2022/02/22 05:47:50;;;;;;;33.17;3.73;;;;;;;;;;5044372;28;20174;-67
2022/02/22 05:50:16;;;;;;;34.37;3.83;;;;;;;;;;5045314;28;20645;-68
2022/02/22 05:52:41;;;;;;;37.00;4.43;;;;;;;;;;5041562;28;20648;-67
2022/02/22 05:55:07;;;;;;;29.53;3.70;;;;;;;;;;5038287;28;20656;-67
2022/02/22 05:57:32;;;;;;;23.50;3.53;;;;;;;;;;5043124;28;20170;-67
2022/02/22 05:59:57;;;;;;;21.10;2.80;;;;;;;;;;5045714;28;20193;-67
2022/02/22 06:02:22;;;;;;;29.23;3.13;;;;;;;;;;5042040;28;20315;-68
2022/02/22 06:04:48;;;;;;;25.33;3.30;;;;;;;;;;5048049;28;20189;-68
2022/02/22 06:07:13;;;;;;;30.13;4.47;;;;;;;;;;5039827;28;20520;-68
2022/02/22 06:09:39;;;;;;;35.40;3.93;;;;;;;;;;5043181;28;20189;-68
2022/02/22 06:12:06;;;;;;;31.70;3.43;;;;;;;;;;5044670;28;20225;-68
2022/02/22 06:14:31;;;;;;;38.03;3.77;;;;;;;;;;5034787;28;20209;-68
2022/02/22 06:16:56;;;;;;;37.27;3.63;;;;;;;;;;5035846;28;20181;-67
2022/02/22 06:19:22;;;;;;;30.10;3.27;;;;;;;;;;5035732;28;20187;-67
2022/02/22 06:21:47;;;;;;;46.90;3.83;;;;;;;;;;5042553;28;20181;-67
2022/02/22 06:24:13;;;;;;;31.67;3.40;;;;;;;;;;5039377;28;20200;-67
2022/02/22 06:26:38;;;;;;;24.20;3.60;;;;;;;;;;5034379;28;20311;-67
2022/02/22 06:29:04;;;;;;;24.43;4.20;;;;;;;;;;5039834;28;20189;-67
2022/02/22 06:31:30;;;;;;;37.40;4.00;;;;;;;;;;5042658;28;20220;-67
2022/02/22 06:33:55;;;;;;;32.87;4.23;;;;;;;;;;5038955;28;20186;-68
2022/02/22 06:36:21;;;;;;;27.07;4.77;;;;;;;;;;5040920;28;20784;-68
2022/02/22 06:38:46;;;;;;;22.40;3.27;;;;;;;;;;5041087;28;20189;-68
2022/02/22 06:41:11;;;;;;;29.67;3.43;;;;;;;;;;5040821;28;20200;-67
2022/02/22 06:43:37;;;;;;;46.47;4.73;;;;;;;;;;5041430;28;20291;-67
2022/02/22 06:46:03;;;;;;;34.30;4.37;;;;;;;;;;5045874;28;20222;-67
2022/02/22 06:48:28;;;;;;;32.10;3.40;;;;;;;;;;5045216;28;20202;-67
2022/02/22 06:50:54;;;;;;;31.20;4.40;;;;;;;;;;5040062;28;20209;-67
2022/02/22 06:53:19;;;;;;;33.07;4.40;;;;;;;;;;5044944;28;20242;-67
2022/02/22 06:55:44;;;;;;;32.03;4.07;;;;;;;;;;5036149;28;20197;-68
2022/02/22 06:58:10;;;;;;;30.10;3.47;;;;;;;;;;5038074;28;20244;-68
2022/02/22 07:00:37;;;;;;;30.27;4.23;;;;;;;;;;5036888;28;20178;-67
2022/02/22 07:03:04;;;;;;;38.67;3.67;;;;;;;;;;5043540;28;20181;-67
2022/02/22 07:05:30;;;;;;;35.40;3.63;;;;;;;;;;5040565;28;20628;-67
2022/02/22 07:07:57;;;;;;;25.60;3.80;;;;;;;;;;5045416;28;20186;-68
2022/02/22 07:10:23;;;;;;;24.63;3.97;;;;;;;;;;5040434;28;20218;-67
2022/02/22 07:12:49;;;;;;;32.27;4.70;;;;;;;;;;5043851;28;20553;-67
2022/02/22 07:15:14;;;;;;;27.83;3.70;;;;;;;;;;5043388;28;20196;-66
2022/02/22 07:17:48;;;;;;;30.87;3.57;;;;;;;;;;5043893;28;20190;-66
2022/02/22 07:20:15;;;;;;;31.57;4.43;;;;;;;;;;5045693;28;20189;-66
2022/02/22 07:22:42;;;;;;;23.33;3.47;;;;;;;;;;5046447;28;20607;-68
2022/02/22 07:25:10;;;;;;;42.10;4.20;;;;;;;;;;5047857;28;20172;-68
2022/02/22 07:27:36;;;;;;;28.37;3.57;;;;;;;;;;5044395;28;20542;-68
2022/02/22 07:30:05;;;;;;;39.87;6.10;;;;;;;;;;5043938;28;20193;-68
2022/02/22 07:32:31;;;;;;;36.23;4.20;;;;;;;;;;5045105;28;20270;-67
2022/02/22 07:34:56;;;;;;;33.87;4.53;;;;;;;;;;5044322;28;20578;-68
2022/02/22 07:37:22;;;;;;;29.70;3.83;;;;;;;;;;5042255;28;20197;-68
2022/02/22 07:39:47;;;;;;;32.50;4.30;;;;;;;;;;5035677;28;20185;-68
2022/02/22 07:42:12;;;;;;;37.07;4.97;;;;;;;;;;5041842;28;20190;-67
2022/02/22 07:44:38;;;;;;;26.60;3.10;;;;;;;;;;5044758;28;20294;-67
2022/02/22 07:47:04;;;;;;;30.97;3.60;;;;;;;;;;5040068;28;20186;-67
2022/02/22 07:49:29;;;;;;;27.70;4.27;;;;;;;;;;5049216;28;20194;-67
2022/02/22 07:51:54;;;;;;;30.13;4.07;;;;;;;;;;5040982;28;20309;-67
2022/02/22 07:54:19;;;;;;;25.60;3.90;;;;;;;;;;5043770;28;20185;-68
2022/02/22 07:56:45;;;;;;;32.07;4.03;;;;;;;;;;5042917;28;20276;-68
2022/02/22 07:59:10;;;;;;;31.90;3.80;;;;;;;;;;5052264;28;20275;-68
2022/02/22 08:01:35;;;;;;;25.87;3.90;;;;;;;;;;5044831;28;20189;-67
2022/02/22 08:04:01;;;;;;;26.47;4.00;;;;;;;;;;5044025;28;20280;-67
2022/02/22 08:06:26;;;;;;;28.80;3.77;;;;;;;;;;5049720;28;20243;-67
2022/02/22 08:08:52;;;;;;;31.07;3.97;;;;;;;;;;5045631;28;20195;-67
2022/02/22 08:11:17;;;;;;;42.83;4.80;;;;;;;;;;5044424;28;20268;-67
2022/02/22 08:13:43;;;;;;;33.73;5.03;;;;;;;;;;5042378;28;20333;-67
2022/02/22 08:16:08;;;;;;;22.70;4.03;;;;;;;;;;5046177;28;20182;-67
2022/02/22 08:18:34;;;;;;;30.47;3.80;;;;;;;;;;5044810;28;20260;-67
2022/02/22 08:20:59;;;;;;;26.00;3.33;;;;;;;;;;5050768;28;20170;-67
2022/02/22 08:23:30;;;;;;;24.97;3.70;;;;;;;;;;5043697;28;20185;-67
2022/02/22 08:25:57;;;;;;;37.77;4.63;;;;;;;;;;5044552;28;20796;-67
2022/02/22 08:28:22;;;;;;;29.37;3.80;;;;;;;;;;5044346;28;20181;-67
2022/02/22 08:30:47;;;;;;;26.97;4.00;;;;;;;;;;5045320;28;20225;-67
2022/02/22 08:33:12;;;;;;;22.50;3.83;;;;;;;;;;5044599;28;20189;-66
2022/02/22 08:35:38;;;;;;;24.63;3.27;;;;;;;;;;5045073;28;20185;-66
2022/02/22 08:38:03;;;;;;;27.23;3.47;;;;;;;;;;5042859;28;20586;-67
2022/02/22 08:40:29;;;;;;;24.00;3.90;;;;;;;;;;5041638;28;20190;-67
2022/02/22 08:42:54;;;;;;;34.57;4.27;;;;;;;;;;5046287;28;20181;-67
2022/02/22 08:45:19;;;;;;;23.67;3.80;;;;;;;;;;5046874;28;20613;-67
2022/02/22 08:47:45;;;;;;;28.07;4.80;;;;;;;;;;5035930;28;20672;-67
2022/02/22 08:50:10;;;;;;;29.90;4.50;;;;;;;;;;5049302;28;20263;-67
2022/02/22 08:52:35;;;;;;;23.60;5.13;;;;;;;;;;5047163;28;20309;-67
2022/02/22 08:55:01;;;;;;;26.00;3.87;;;;;;;;;;5041465;28;20189;-68
2022/02/22 08:57:27;;;;;;;24.53;4.00;;;;;;;;;;5046408;28;20196;-67
2022/02/22 08:59:53;;;;;;;22.43;3.43;;;;;;;;;;5041568;28;20809;-67
2022/02/22 09:02:18;;;;;;;25.47;4.00;;;;;;;;;;5041545;28;20302;-67
2022/02/22 09:04:43;;;;;;;19.80;3.90;;;;;;;;;;5041298;28;20228;-67
2022/02/22 09:07:09;;;;;;;30.40;4.37;;;;;;;;;;5045197;28;20501;-67
2022/02/22 09:09:34;;;;;;;25.60;4.27;;;;;;;;;;5045193;28;20683;-67
2022/02/22 09:12:01;;;;;;;21.77;3.67;;;;;;;;;;5035075;28;20225;-67
2022/02/22 09:14:26;;;;;;;20.07;3.83;;;;;;;;;;5041185;28;20181;-67
2022/02/22 09:16:52;;;;;;;22.53;3.70;;;;;;;;;;5047628;28;20713;-67
2022/02/22 09:19:17;;;;;;;24.07;4.10;;;;;;;;;;5045702;28;20177;-66
2022/02/22 09:21:42;;;;;;;18.57;2.93;;;;;;;;;;5045178;28;20189;-67
2022/02/22 09:24:08;;;;;;;20.50;3.53;;;;;;;;;;5046109;28;20188;-66
2022/02/22 09:26:33;;;;;;;17.10;3.33;;;;;;;;;;5040113;28;20640;-66
2022/02/22 09:28:59;;;;;;;20.47;4.07;;;;;;;;;;5046215;28;20234;-66
2022/02/22 09:31:25;;;;;;;19.73;3.17;;;;;;;;;;5045092;28;20205;-66
2022/02/22 09:33:51;;;;;;;15.47;2.63;;;;;;;;;;5042787;28;20439;-66
2022/02/22 09:36:16;;;;;;;18.40;2.77;;;;;;;;;;5040832;28;20701;-66
2022/02/22 09:38:42;;;;;;;22.00;3.20;;;;;;;;;;5043805;28;20185;-67
2022/02/22 09:41:08;;;;;;;13.37;2.53;;;;;;;;;;5042114;28;20188;-67
2022/02/22 09:43:34;;;;;;;24.17;3.87;;;;;;;;;;5040998;28;20190;-67
2022/02/22 09:46:00;;;;;;;16.87;2.80;;;;;;;;;;5038943;28;20185;-66
2022/02/22 09:48:25;;;;;;;22.87;2.93;;;;;;;;;;5051686;28;20191;-66
2022/02/22 09:50:51;;;;;;;23.97;3.20;;;;;;;;;;5041943;28;20208;-66
2022/02/22 09:53:16;;;;;;;19.20;3.10;;;;;;;;;;5044355;28;20752;-66
2022/02/22 09:55:42;;;;;;;19.80;3.47;;;;;;;;;;5042870;28;20363;-67
2022/02/22 09:58:07;;;;;;;14.80;3.03;;;;;;;;;;5044850;28;20243;-66
2022/02/22 10:00:33;;;;;;;23.83;3.47;;;;;;;;;;5041400;28;20541;-67
2022/02/22 10:02:59;;;;;;;17.80;3.17;;;;;;;;;;5042356;28;20193;-67
2022/02/22 10:05:27;;;;;;;20.90;3.80;;;;;;;;;;5044155;28;20221;-67
2022/02/22 10:07:54;;;;;;;27.50;5.07;;;;;;;;;;5049807;28;20227;-66
2022/02/22 10:10:40;;;;;;;14.73;3.80;;;;;;;;;;5042116;28;20188;-66
2022/02/22 10:13:07;;;;;;;24.47;3.70;;;;;;;;;;5037460;28;20220;-66
2022/02/22 10:15:41;;;;;;;19.57;3.70;;;;;;;;;;5045706;28;20181;-66
2022/02/22 10:18:08;;;;;;;24.73;3.77;;;;;;;;;;5040452;28;20193;-67
2022/02/22 10:20:33;;;;;;;21.10;3.87;;;;;;;;;;5048538;28;20189;-66
2022/02/22 10:23:00;;;;;;;17.13;3.77;;;;;;;;;;5043790;28;20185;-66
2022/02/22 10:25:25;;;;;;;23.47;3.73;;;;;;;;;;5048021;28;20323;-66
2022/02/22 10:27:53;;;;;;;26.63;4.47;;;;;;;;;;5039261;28;20301;-67
2022/02/22 10:30:38;;;;;;;16.17;3.47;;;;;;;;;;5045746;28;20305;-67
2022/02/22 10:33:22;;;;;;;23.40;4.37;;;;;;;;;;5039651;28;20250;-67
2022/02/22 10:35:53;;;;;;;20.80;4.13;;;;;;;;;;5039959;28;20771;-66
2022/02/22 10:38:26;;;;;;;17.17;4.93;;;;;;;;;;5039465;28;20248;-67
2022/02/22 10:41:05;;;;;;;25.03;5.17;;;;;;;;;;5042525;28;20574;-67
2022/02/22 10:43:33;;;;;;;29.90;4.57;;;;;;;;;;5039957;28;20271;-67
2022/02/22 10:46:05;;;;;;;25.83;4.90;;;;;;;;;;5041126;28;20196;-66
2022/02/22 10:48:36;;;;;;;17.90;3.50;;;;;;;;;;5045829;28;20652;-67
2022/02/22 10:51:04;;;;;;;23.10;4.27;;;;;;;;;;5046170;28;20197;-66
2022/02/22 10:53:36;;;;;;;19.50;3.80;;;;;;;;;;5043943;28;20529;-66
2022/02/22 10:56:04;;;;;;;21.13;4.17;;;;;;;;;;5045375;28;20197;-66
2022/02/22 10:58:31;;;;;;;17.53;3.80;;;;;;;;;;5042576;28;20219;-66
2022/02/22 11:00:57;;;;;;;20.87;3.70;;;;;;;;;;5037829;28;20692;-66
2022/02/22 11:03:22;;;;;;;18.80;4.10;;;;;;;;;;5046736;28;20181;-67
2022/02/22 11:05:49;;;;;;;23.63;4.80;;;;;;;;;;5043361;28;20666;-66
2022/02/22 11:08:15;;;;;;;25.83;5.07;;;;;;;;;;5044904;28;20209;-66
2022/02/22 11:10:53;;;;;;;18.50;3.97;;;;;;;;;;5041334;28;20229;-66
2022/02/22 11:13:25;;;;;;;26.70;4.53;;;;;;;;;;5041571;28;20582;-66
2022/02/22 11:15:51;;;;;;;20.95;4.13;;;;;;;;;;5043317;28;20196;-66
2022/02/22 11:18:19;;;;;;;22.73;4.35;;;;;;;;;;5039045;28;20264;-66
2022/02/22 11:20:46;;;;;;;26.15;4.80;;;;;;;;;;5042965;28;20181;-66
2022/02/22 11:23:22;;;;;;;18.20;4.10;;;;;;;;;;5041578;28;20205;-66
2022/02/22 11:25:49;;;;;;;25.33;4.75;;;;;;;;;;5044216;28;20185;-65
2022/02/22 11:28:15;;;;;;;19.90;4.78;;;;;;;;;;5039627;28;20653;-65
2022/02/22 11:30:41;;;;;;;26.87;4.43;;;;;;;;;;5043707;28;20229;-66
2022/02/22 11:33:12;;;;;;;28.08;4.25;;;;;;;;;;5047527;28;20180;-66
2022/02/22 11:35:56;;;;;;;19.65;4.07;;;;;;;;;;5042712;28;20185;-66
2022/02/22 11:38:22;;;;;;;20.80;5.07;;;;;;;;;;5036947;28;20272;-66
2022/02/22 11:40:50;;;;;;;19.17;4.95;;;;;;;;;;5044553;28;20269;-66
2022/02/22 11:43:18;;;;;;;21.10;4.13;;;;;;;;;;5050420;28;20517;-66
2022/02/22 11:45:47;;;;;;;24.47;4.83;;;;;;;;;;5044885;28;20693;-66
2022/02/22 11:48:15;;;;;;;17.93;4.30;;;;;;;;;;5044700;28;20185;-66
2022/02/22 11:50:41;;;;;;;29.85;4.75;;;;;;;;;;5046487;28;20205;-66
2022/02/22 11:53:13;;;;;;;18.02;4.30;;;;;;;;;;5048363;28;20728;-66
2022/02/22 11:55:39;;;;;;;20.93;4.93;;;;;;;;;;5048607;28;20325;-66
2022/02/22 11:58:22;;;;;;;21.35;4.45;;;;;;;;;;5051299;28;20199;-67
2022/02/22 12:00:50;;;;;;;27.90;4.13;;;;;;;;;;5050348;28;20176;-66
2022/02/22 12:03:18;;;;;;;27.05;4.68;;;;;;;;;;5047341;28;20181;-66
2022/02/22 12:05:50;;;;;;;25.55;4.82;;;;;;;;;;5046114;28;20182;-65
2022/02/22 12:08:18;;;;;;;23.90;4.32;;;;;;;;;;5045236;28;20705;-65
2022/02/22 12:10:55;;;;;;;21.00;4.55;;;;;;;;;;5046918;28;20551;-66
2022/02/22 12:13:23;;;;;;;22.40;3.85;;;;;;;;;;5043295;28;20225;-67
2022/02/22 12:15:49;;;;;;;26.40;4.65;;;;;;;;;;5047419;28;20165;-66
2022/02/22 12:18:19;;;;;;;22.07;4.47;;;;;;;;;;5041683;28;20196;-66
2022/02/22 12:20:45;;;;;;;26.97;4.90;;;;;;;;;;5048637;28;20527;-66
2022/02/22 12:23:22;;;;;;;26.60;4.80;;;;;;;;;;5043680;28;20193;-68
2022/02/22 12:25:50;;;;;;;27.80;4.30;;;;;;;;;;5042244;28;20185;-67
2022/02/22 12:28:15;;;;;;;27.47;4.20;;;;;;;;;;5044817;28;20177;-66
2022/02/22 12:30:42;;;;;;;28.70;4.97;;;;;;;;;;5044931;28;20303;-66
2022/02/22 12:33:08;;;;;;;25.03;4.63;;;;;;;;;;5041425;28;20194;-66
2022/02/22 12:35:40;;;;;;;23.00;4.73;;;;;;;;;;5050423;28;20185;-67
2022/02/22 12:38:23;;;;;;;22.53;4.67;;;;;;;;;;5043713;28;20209;-67
2022/02/22 12:40:51;;;;;;;24.27;4.97;;;;;;;;;;5041556;28;20605;-66
2022/02/22 12:43:17;;;;;;;20.17;4.50;;;;;;;;;;5044037;28;20196;-66
2022/02/22 12:45:46;;;;;;;21.60;4.57;;;;;;;;;;5047289;28;20189;-67
2022/02/22 12:48:14;;;;;;;21.57;4.90;;;;;;;;;;5043668;28;20178;-67
2022/02/22 12:50:40;;;;;;;22.23;4.47;;;;;;;;;;5041857;28;20715;-67
2022/02/22 12:53:06;;;;;;;29.17;5.33;;;;;;;;;;5050104;28;20193;-67
2022/02/22 12:55:31;;;;;;;21.47;4.93;;;;;;;;;;5045860;28;20787;-67
2022/02/22 12:58:05;;;;;;;25.17;5.27;;;;;;;;;;5058140;28;20189;-66
2022/02/22 13:00:30;;;;;;;23.87;4.90;;;;;;;;;;5044415;28;20551;-67
2022/02/22 13:03:14;;;;;;;23.37;4.83;;;;;;;;;;5044896;28;20185;-67
2022/02/22 13:05:44;;;;;;;24.97;5.77;;;;;;;;;;5043589;28;20922;-67
2022/02/22 13:08:10;;;;;;;30.58;5.25;;;;;;;;;;5040793;28;20190;-66
2022/02/22 13:10:46;;;;;;;26.27;5.73;;;;;;;;;;5044423;28;20243;-67
2022/02/22 13:13:13;;;;;;;23.63;5.30;;;;;;;;;;5044099;28;20220;-67
2022/02/22 13:15:38;;;;;;;25.43;5.87;;;;;;;;;;5043841;28;20181;-67
2022/02/22 13:18:15;;;;;;;25.20;5.63;;;;;;;;;;5045104;28;20181;-67
2022/02/22 13:20:43;;;;;;;31.07;6.13;;;;;;;;;;5042526;28;20205;-67
2022/02/22 13:23:11;;;;;;;29.80;6.73;;;;;;;;;;5041297;28;20181;-67
2022/02/22 13:25:54;;;;;;;27.58;5.35;;;;;;;;;;5044770;28;20189;-67
2022/02/22 13:28:36;;;;;;;28.93;5.93;;;;;;;;;;5041856;28;20228;-67
2022/02/22 13:31:15;;;;;;;21.83;5.30;;;;;;;;;;5046577;28;20303;-67
2022/02/22 13:33:43;;;;;;;34.50;6.50;;;;;;;;;;5041821;28;20268;-67
2022/02/22 13:36:14;;;;;;;24.25;5.72;;;;;;;;;;5047392;28;20181;-67
2022/02/22 13:38:39;;;;;;;27.47;6.17;;;;;;;;;;5053642;28;20282;-67
2022/02/22 13:41:13;;;;;;;26.02;5.93;;;;;;;;;;5040934;28;20197;-67
2022/02/22 13:43:39;;;;;;;23.07;6.13;;;;;;;;;;5047436;28;20170;-67
2022/02/22 13:46:05;;;;;;;30.90;6.28;;;;;;;;;;5045816;28;20498;-68
2022/02/22 13:48:32;;;;;;;25.23;6.63;;;;;;;;;;5057889;28;20173;-67
2022/02/22 13:51:08;;;;;;;31.80;6.43;;;;;;;;;;5046091;28;20718;-67
2022/02/22 13:53:34;;;;;;;27.80;6.40;;;;;;;;;;5053943;28;20177;-67
2022/02/22 13:56:04;;;;;;;30.70;6.72;;;;;;;;;;5043585;28;20570;-67
2022/02/22 13:58:33;;;;;;;27.90;7.05;;;;;;;;;;5052775;28;20343;-67
2022/02/22 14:01:00;;;;;;;28.37;6.60;;;;;;;;;;5043234;28;20260;-67
2022/02/22 14:03:26;;;;;;;32.90;7.20;;;;;;;;;;5047556;28;20185;-67
2022/02/22 14:05:52;;;;;;;31.67;6.57;;;;;;;;;;5042892;28;20188;-67
2022/02/22 14:08:18;;;;;;;25.27;6.68;;;;;;;;;;5050605;28;20213;-69
2022/02/22 14:10:46;;;;;;;24.77;6.80;;;;;;;;;;5045658;28;20212;-67
2022/02/22 14:13:13;;;;;;;25.27;7.50;;;;;;;;;;5046743;28;20197;-69
2022/02/22 14:15:39;;;;;;;30.23;6.45;;;;;;;;;;5051428;28;20609;-67
2022/02/22 14:18:05;;;;;;;36.45;8.20;;;;;;;;;;5044194;28;20189;-65
2022/02/22 14:20:33;;;;;;;30.27;8.10;;;;;;;;;;5046062;28;20636;-65
2022/02/22 14:22:59;;;;;;;28.38;9.00;;;;;;;;;;5048834;28;20193;-66
2022/02/22 14:25:27;;;;;;;33.95;8.27;;;;;;;;;;5053034;28;20196;-66
2022/02/22 14:27:53;;;;;;;25.15;8.02;;;;;;;;;;5047624;28;20185;-66
2022/02/22 14:30:18;;;;;;;37.00;8.53;;;;;;;;;;5044574;28;20293;-67